Seattle, Washington
Current Conditions -  °F | °C
As of 9:53 PM on Monday 20 Oct 2014 (Local Time) from KBFI Reporting Station
Light Rain Light Rain  
Wind Chill: 14°   Ceiling: 4300
Heat Index: 14°   Visibility: 5mi
Dew Point: 12°   Wind: 3mph
Humidity: 84%   Direction: NA
Pressure: 29.79"   Gusts: NA
Location:  47.6°N, 122.32°W
Report Text: KBFI 210453Z VRB03KT 5SM -RA FEW030 BKN043 OVC050 14/12 A2979 RMK AO2 SLP089 P0017 T01440117
Loading
Personal Weather Stations






























Interactive Weather Map
Tropical Storm Tracking
New forecast layout! Learn more

10-Day Weather Forecast

Advertisements
Track Severe Weather on mobile